WSAP/QPG METAR and TAF weather

Enter ICAO airport designator
Station Type Date Time Source
WSAP METAR 2020/07/07 10:00 UTC NOAA

WSAP 071000Z 21006KT 9999 -SHRA FEW017TCU SCT160 28/24 Q1009


Station Type Date Time Source
WSAP Decoded METAR 2020/07/07 10:00 UTC NOAA

Singapore / Paya Lebar, Singapore (WSAP) 01-22N 103-55E 32M
Jul 07, 2020 - 06:00 AM EDT / 2020.07.07 1000 UTC
Wind: from the SSW (210 degrees) at 7 MPH (6 KT):0
Visibility: greater than 7 mile(s):0
Sky conditions: partly cloudy
Weather: light rain showers; Towering cumulus clouds observed
Temperature: 82 F (28 C)
Dew Point: 75 F (24 C)
Relative Humidity: 78%
Pressure (altimeter): 29.80 in. Hg (1009 hPa)
ob: WSAP 071000Z 21006KT 9999 -SHRA FEW017TCU SCT160 28/24 Q1009
cycle: 10

Station Type Date Time Source
WSAP TAF 2020/07/07 08:04 UTC NOAA

TAF
AMD WSAP 070800Z 0708/0812 16007KT 9999 FEW015 SCT020
TEMPO 0802/0806 3000 TSRA FEW012CB BKN015

Example: see airport list